Time;durP1;ratioP1;P1;durP2;ratioP2;P2;SDS_P1;SDS_P2;PMS_P1;PMS_P2;Temp;Humidity;BMP_temperature;BMP_pressure;BME280_temperature;BME280_humidity;BME280_pressure;Samples;Min_cycle;Max_cycle;Signal;HPM_P1;HPM_P2
2022/12/26 00:01:46;;;;;;;47.97;25.05;;;3.00;99.90;;;;;;5052201;28;20123;-80
2022/12/26 00:04:12;;;;;;;45.50;23.15;;;3.00;99.90;;;;;;5054744;28;20463;-83
2022/12/26 00:06:38;;;;;;;44.63;24.52;;;3.00;99.90;;;;;;5054368;28;20025;-83
2022/12/26 00:09:06;;;;;;;45.92;23.10;;;2.90;99.90;;;;;;5054648;28;20082;-80
2022/12/26 00:11:33;;;;;;;50.80;25.80;;;3.00;99.90;;;;;;5053094;28;20017;-80
2022/12/26 00:14:04;;;;;;;51.45;24.95;;;3.00;99.90;;;;;;5053249;28;20028;-84
2022/12/26 00:16:30;;;;;;;42.58;24.98;;;2.90;99.90;;;;;;5047484;28;20025;-84
2022/12/26 00:18:56;;;;;;;42.55;23.33;;;2.80;99.90;;;;;;5053324;28;20035;-84
2022/12/26 00:21:24;;;;;;;44.45;23.98;;;2.80;99.90;;;;;;5054043;28;20057;-84
2022/12/26 00:23:50;;;;;;;46.20;24.98;;;2.80;99.90;;;;;;5054448;28;20024;-83
2022/12/26 00:26:18;;;;;;;42.42;22.38;;;2.80;99.90;;;;;;5049449;28;20025;-84
2022/12/26 00:28:44;;;;;;;47.28;25.55;;;2.80;99.90;;;;;;5034443;28;20037;-79
2022/12/26 00:31:16;;;;;;;59.88;30.27;;;2.70;99.90;;;;;;5046587;28;20031;-79
2022/12/26 00:33:41;;;;;;;70.95;30.55;;;2.70;99.90;;;;;;5053072;28;20075;-83
2022/12/26 00:36:11;;;;;;;81.35;36.78;;;2.70;99.90;;;;;;5049396;28;20025;-83
2022/12/26 00:38:37;;;;;;;94.38;41.72;;;2.70;99.90;;;;;;5033384;28;20022;-83
2022/12/26 00:41:04;;;;;;;87.10;35.58;;;2.60;99.90;;;;;;5047120;28;20028;-83
2022/12/26 00:43:30;;;;;;;77.45;33.33;;;2.60;99.90;;;;;;5054065;28;20379;-79
2022/12/26 00:45:56;;;;;;;49.35;24.42;;;2.60;99.90;;;;;;5053069;28;20028;-80
2022/12/26 00:48:22;;;;;;;46.97;24.73;;;2.60;99.90;;;;;;5054102;28;20033;-80
2022/12/26 00:50:47;;;;;;;46.80;22.05;;;2.60;99.90;;;;;;5049023;28;20491;-79
2022/12/26 00:53:13;;;;;;;38.95;20.55;;;2.70;99.90;;;;;;5033691;28;20029;-79
2022/12/26 00:55:39;;;;;;;48.00;24.27;;;2.60;99.90;;;;;;5043620;28;20147;-79
2022/12/26 00:58:04;;;;;;;49.22;23.92;;;2.60;99.90;;;;;;5052632;28;20017;-80
2022/12/26 01:00:31;;;;;;;40.92;21.40;;;2.60;99.90;;;;;;5053144;28;20025;-83
2022/12/26 01:02:56;;;;;;;46.15;23.73;;;2.50;99.90;;;;;;5053841;28;20379;-79
2022/12/26 01:05:22;;;;;;;44.78;22.98;;;2.50;99.90;;;;;;5048458;28;20044;-84
2022/12/26 01:07:47;;;;;;;43.63;23.63;;;2.50;99.90;;;;;;5032576;28;20040;-79
2022/12/26 01:10:14;;;;;;;44.47;23.35;;;2.40;99.90;;;;;;5038503;28;20071;-79
2022/12/26 01:12:39;;;;;;;49.50;24.60;;;2.40;99.90;;;;;;5053558;28;20039;-79
2022/12/26 01:15:06;;;;;;;45.53;24.20;;;2.40;99.90;;;;;;5047756;28;20527;-84
2022/12/26 01:17:32;;;;;;;45.63;24.48;;;2.40;99.90;;;;;;5051217;28;20044;-79
2022/12/26 01:19:57;;;;;;;45.67;23.05;;;2.40;99.90;;;;;;5052843;28;20087;-84
2022/12/26 01:22:26;;;;;;;36.55;22.58;;;2.50;99.90;;;;;;5053519;28;20021;-83
2022/12/26 01:24:55;;;;;;;44.38;22.55;;;2.50;99.90;;;;;;5053129;28;20055;-79
2022/12/26 01:27:22;;;;;;;37.17;20.27;;;2.50;99.90;;;;;;5052117;28;20104;-83
2022/12/26 01:29:47;;;;;;;40.78;22.70;;;2.60;99.90;;;;;;5051649;28;20013;-80
2022/12/26 01:32:13;;;;;;;41.13;21.98;;;2.50;99.90;;;;;;5051969;28;20491;-84
2022/12/26 01:34:38;;;;;;;51.60;27.83;;;2.60;99.90;;;;;;5052924;28;20033;-79
2022/12/26 01:37:04;;;;;;;47.35;27.25;;;2.50;99.90;;;;;;5053391;28;20112;-83
2022/12/26 01:39:30;;;;;;;45.60;26.23;;;2.60;99.90;;;;;;5051486;28;20025;-84
2022/12/26 01:41:55;;;;;;;40.55;23.05;;;2.60;99.90;;;;;;5052822;28;20100;-84
2022/12/26 01:44:55;;;;;;;37.63;21.23;;;2.50;99.90;;;;;;5051606;28;20025;-84
2022/12/26 01:47:24;;;;;;;31.55;17.80;;;2.60;99.90;;;;;;5053134;28;20108;-84
2022/12/26 01:49:53;;;;;;;32.22;17.92;;;2.70;99.90;;;;;;5052902;28;20017;-84
2022/12/26 01:52:28;;;;;;;26.63;14.55;;;2.70;99.90;;;;;;5053044;28;20036;-80
2022/12/26 01:54:54;;;;;;;27.95;15.80;;;2.80;99.90;;;;;;5048283;28;20560;-79
2022/12/26 01:57:24;;;;;;;27.83;15.90;;;2.90;99.90;;;;;;5031843;28;20017;-80
2022/12/26 01:59:51;;;;;;;29.40;15.95;;;3.00;99.90;;;;;;5035183;28;20501;-80
2022/12/26 02:02:19;;;;;;;32.03;17.23;;;3.00;99.90;;;;;;5051662;28;20025;-80
2022/12/26 02:07:36;;;;;;;35.35;19.83;;;3.20;99.90;;;;;;5053053;28;20414;-85
2022/12/26 02:10:03;;;;;;;33.05;19.40;;;3.20;99.90;;;;;;5050830;28;20017;-80
2022/12/26 02:12:32;;;;;;;31.73;18.13;;;3.10;99.90;;;;;;5052972;28;20021;-84
2022/12/26 02:14:59;;;;;;;29.02;16.15;;;3.20;99.90;;;;;;5048302;28;20418;-83
2022/12/26 02:17:25;;;;;;;31.58;17.23;;;3.20;99.90;;;;;;5051358;28;20037;-84
2022/12/26 02:20:16;;;;;;;28.52;16.67;;;3.10;99.90;;;;;;5052243;28;20032;-86
2022/12/26 02:23:09;;;;;;;26.25;15.68;;;3.10;99.90;;;;;;5051458;28;20534;-85
2022/12/26 02:25:53;;;;;;;;;;;3.20;99.90;;;;;;5048363;28;20030;-79
2022/12/26 02:28:37;;;;;;;26.27;14.05;;;3.20;99.90;;;;;;5031562;28;20386;-84
2022/12/26 02:31:36;;;;;;;25.42;15.85;;;3.20;99.90;;;;;;5044205;28;20120;-79
2022/12/26 02:34:20;;;;;;;24.75;14.68;;;3.20;99.90;;;;;;5051556;28;20496;-80
2022/12/26 02:36:48;;;;;;;29.40;15.40;;;3.20;99.90;;;;;;5032131;28;20018;-80
2022/12/26 02:39:40;;;;;;;26.67;16.92;;;3.20;99.90;;;;;;5031519;28;20375;-84
2022/12/26 02:42:11;;;;;;;26.35;15.63;;;3.20;99.90;;;;;;5031375;28;20017;-79
2022/12/26 02:48:01;;;;;;;27.85;15.82;;;3.10;99.90;;;;;;5032702;28;20068;-80
2022/12/26 03:14:47;;;;;;;29.85;16.55;;;2.50;99.90;;;;;;5055767;28;20415;-79
2022/12/26 03:17:38;;;;;;;23.10;12.35;;;2.40;99.90;;;;;;5054382;28;20116;-79
2022/12/26 03:20:20;;;;;;;22.13;14.02;;;2.40;99.90;;;;;;5053356;28;20127;-84
2022/12/26 03:23:08;;;;;;;24.13;13.80;;;2.30;99.90;;;;;;5054394;28;20044;-79
2022/12/26 03:28:35;;;;;;;24.58;13.65;;;2.20;99.90;;;;;;5055427;28;20151;-84
2022/12/26 03:31:06;;;;;;;25.63;14.45;;;2.20;99.90;;;;;;5050448;28;20112;-79
2022/12/26 03:36:42;;;;;;;23.98;13.27;;;2.10;99.90;;;;;;5050683;28;20048;-84
2022/12/26 03:39:16;;;;;;;25.58;13.10;;;2.10;99.90;;;;;;5054195;28;20407;-80
2022/12/26 04:20:23;;;;;;;18.20;11.57;;;1.70;99.90;;;;;;5053934;28;20063;-80
2022/12/26 04:46:11;;;;;;;23.10;13.75;;;1.20;99.90;;;;;;5053718;28;20036;-83
2022/12/26 04:51:28;;;;;;;24.30;13.98;;;1.20;99.90;;;;;;5054013;28;20386;-80
2022/12/26 04:53:54;;;;;;;24.00;14.13;;;1.10;99.90;;;;;;5052590;28;20111;-80
2022/12/26 04:56:20;;;;;;;20.48;15.32;;;1.10;99.90;;;;;;5053592;28;20040;-84
2022/12/26 04:58:45;;;;;;;28.13;15.07;;;1.20;99.90;;;;;;5052541;28;20071;-84
2022/12/26 05:09:35;;;;;;;21.02;14.88;;;1.10;99.90;;;;;;5053735;28;20510;-83
2022/12/26 05:12:07;;;;;;;27.17;16.10;;;1.10;99.90;;;;;;5032485;28;20017;-84
2022/12/26 05:14:34;;;;;;;25.17;14.60;;;1.10;99.90;;;;;;5032989;28;20025;-80
2022/12/26 05:30:56;;;;;;;18.88;13.32;;;1.00;99.90;;;;;;5033332;28;20056;-83
2022/12/26 05:36:07;;;;;;;23.40;13.50;;;0.90;99.90;;;;;;5033293;28;20059;-81
2022/12/26 05:38:33;;;;;;;20.08;11.93;;;0.90;99.90;;;;;;5031883;28;20128;-83
2022/12/26 05:40:58;;;;;;;26.38;14.27;;;0.90;99.90;;;;;;5033014;28;20025;-81
2022/12/26 05:43:24;;;;;;;27.55;15.75;;;1.00;99.90;;;;;;5032027;28;20025;-80
2022/12/26 05:45:49;;;;;;;39.17;20.85;;;1.00;99.90;;;;;;5034882;28;20021;-80
2022/12/26 05:48:15;;;;;;;33.92;20.90;;;1.10;99.90;;;;;;5033241;28;20038;-80
2022/12/26 05:50:41;;;;;;;29.95;16.67;;;1.20;99.90;;;;;;5041887;28;20025;-82
2022/12/26 05:53:06;;;;;;;29.48;16.95;;;1.20;99.90;;;;;;5051932;28;20060;-81
2022/12/26 05:55:32;;;;;;;23.92;15.23;;;1.30;99.90;;;;;;5048041;28;20020;-80
2022/12/26 05:57:59;;;;;;;24.05;14.48;;;1.20;99.90;;;;;;5031976;28;20091;-83
2022/12/26 06:00:25;;;;;;;22.67;13.95;;;1.20;99.90;;;;;;5041123;28;20016;-80
2022/12/26 06:02:51;;;;;;;27.80;15.65;;;1.10;99.90;;;;;;5051768;28;20028;-81
2022/12/26 06:05:16;;;;;;;31.77;18.40;;;1.10;99.90;;;;;;5052830;28;20029;-84
2022/12/26 06:07:42;;;;;;;26.63;16.50;;;1.10;99.90;;;;;;5051665;28;20075;-81
2022/12/26 06:10:08;;;;;;;26.92;16.17;;;1.20;99.90;;;;;;5052542;28;20119;-83
2022/12/26 06:12:34;;;;;;;37.05;18.70;;;1.20;99.90;;;;;;5052873;28;20363;-83
2022/12/26 06:15:00;;;;;;;39.03;21.02;;;1.20;99.90;;;;;;5047892;28;20087;-84
2022/12/26 06:17:25;;;;;;;32.90;20.23;;;1.20;99.90;;;;;;5051905;28;20025;-81
2022/12/26 06:19:51;;;;;;;35.85;19.38;;;1.20;99.90;;;;;;5052232;28;20047;-81
2022/12/26 06:22:16;;;;;;;36.75;21.17;;;1.20;99.90;;;;;;5053310;28;20050;-79
2022/12/26 06:24:42;;;;;;;31.13;20.17;;;1.20;99.90;;;;;;5052357;28;20036;-83
2022/12/26 06:27:07;;;;;;;36.22;22.27;;;1.20;99.90;;;;;;5051597;28;20017;-82
2022/12/26 06:29:33;;;;;;;39.83;22.35;;;1.20;99.90;;;;;;5053221;28;20036;-83
2022/12/26 06:31:59;;;;;;;49.95;24.27;;;1.20;99.90;;;;;;5055216;28;20076;-84
2022/12/26 06:34:26;;;;;;;48.53;28.63;;;1.30;99.90;;;;;;5055228;28;20028;-80
2022/12/26 06:36:52;;;;;;;52.42;29.35;;;1.40;99.90;;;;;;5056485;28;20017;-80
2022/12/26 06:39:18;;;;;;;48.88;27.80;;;1.50;99.90;;;;;;5055115;28;20098;-83
2022/12/26 06:41:44;;;;;;;55.10;29.42;;;1.50;99.90;;;;;;5056143;28;20466;-82
2022/12/26 06:44:09;;;;;;;55.88;31.45;;;1.60;99.90;;;;;;5055108;28;20413;-83
2022/12/26 06:46:35;;;;;;;56.22;29.45;;;1.60;99.90;;;;;;5051373;28;20360;-80
2022/12/26 06:49:01;;;;;;;44.78;27.63;;;1.60;99.90;;;;;;5037877;28;20033;-83
2022/12/26 06:51:27;;;;;;;52.25;30.80;;;1.60;99.90;;;;;;5054798;28;20025;-83
2022/12/26 06:53:53;;;;;;;46.92;28.83;;;1.60;99.90;;;;;;5054443;28;20067;-83
2022/12/26 06:56:22;;;;;;;55.75;33.25;;;1.60;99.90;;;;;;5054980;28;20512;-83
2022/12/26 06:58:51;;;;;;;56.10;31.65;;;1.60;99.90;;;;;;5054341;28;20035;-83
2022/12/26 07:01:18;;;;;;;55.65;30.35;;;1.70;99.90;;;;;;5040125;28;20057;-84
2022/12/26 07:03:44;;;;;;;55.28;30.85;;;1.70;99.90;;;;;;5034648;28;20021;-80
2022/12/26 07:06:15;;;;;;;56.50;31.63;;;1.70;99.90;;;;;;5035206;28;20121;-80
2022/12/26 07:08:41;;;;;;;51.38;30.80;;;1.70;99.90;;;;;;5043946;28;20041;-79
2022/12/26 07:11:13;;;;;;;57.83;31.67;;;1.70;99.90;;;;;;5053602;28;20025;-83
2022/12/26 07:13:38;;;;;;;61.08;34.10;;;1.80;99.90;;;;;;5055832;28;20029;-83
2022/12/26 07:16:04;;;;;;;45.63;27.05;;;1.70;99.90;;;;;;5050802;28;20051;-83
2022/12/26 07:18:30;;;;;;;54.42;28.95;;;1.70;99.90;;;;;;5055586;28;20062;-80
2022/12/26 07:20:55;;;;;;;45.22;25.50;;;1.70;99.90;;;;;;5053362;28;20505;-83
2022/12/26 07:23:21;;;;;;;35.40;20.58;;;1.60;99.90;;;;;;5055050;28;20021;-83
2022/12/26 07:25:47;;;;;;;37.83;21.63;;;1.60;99.90;;;;;;5047615;28;20028;-83
2022/12/26 07:28:14;;;;;;;41.88;22.13;;;1.60;99.90;;;;;;5053811;28;20039;-83
2022/12/26 07:30:45;;;;;;;47.28;26.77;;;1.60;99.90;;;;;;5054498;28;20021;-80
2022/12/26 07:33:11;;;;;;;63.03;35.47;;;1.60;99.90;;;;;;5053985;28;20028;-83
2022/12/26 07:35:36;;;;;;;58.97;35.28;;;1.60;99.90;;;;;;5043966;28;20490;-80
2022/12/26 07:38:02;;;;;;;67.03;34.17;;;1.60;99.90;;;;;;5054273;28;20025;-83
2022/12/26 07:40:28;;;;;;;45.22;27.75;;;1.70;99.90;;;;;;5045344;28;20030;-83
2022/12/26 07:42:53;;;;;;;50.67;26.88;;;1.70;99.90;;;;;;5035137;28;20033;-84
2022/12/26 07:45:19;;;;;;;55.10;28.77;;;1.70;99.90;;;;;;5034772;28;20109;-80
2022/12/26 07:47:45;;;;;;;51.05;28.38;;;1.80;99.90;;;;;;5035116;28;20434;-82
2022/12/26 07:50:10;;;;;;;42.80;25.10;;;1.80;99.90;;;;;;5036194;28;20017;-83
2022/12/26 07:52:36;;;;;;;49.05;26.98;;;1.90;99.90;;;;;;5043880;28;20033;-84
2022/12/26 07:55:03;;;;;;;60.53;31.02;;;1.90;99.90;;;;;;5054513;28;20078;-83
2022/12/26 07:57:29;;;;;;;51.88;28.50;;;2.10;99.90;;;;;;5053556;28;20017;-81
2022/12/26 07:59:54;;;;;;;56.67;30.45;;;2.20;99.90;;;;;;5049999;28;20025;-81
2022/12/26 08:02:20;;;;;;;54.25;29.83;;;2.30;99.90;;;;;;5034880;28;20028;-81
2022/12/26 08:04:46;;;;;;;56.50;31.38;;;2.50;99.90;;;;;;5035167;28;20052;-80
2022/12/26 08:07:11;;;;;;;57.33;31.23;;;2.60;99.90;;;;;;5053113;28;20112;-83
2022/12/26 08:09:41;;;;;;;54.83;30.02;;;2.70;99.90;;;;;;5053579;28;20470;-84
2022/12/26 08:12:07;;;;;;;54.95;29.95;;;2.80;99.90;;;;;;5054363;28;20017;-83
2022/12/26 08:14:35;;;;;;;58.63;29.42;;;2.80;99.90;;;;;;5053115;28;20039;-80
2022/12/26 08:17:00;;;;;;;51.83;29.25;;;2.90;99.90;;;;;;5052189;28;20028;-79
2022/12/26 08:19:26;;;;;;;55.97;30.42;;;2.90;99.90;;;;;;5052365;28;20009;-83
2022/12/26 08:21:52;;;;;;;53.10;29.13;;;3.00;99.90;;;;;;5053744;28;20056;-80
2022/12/26 08:24:17;;;;;;;54.30;32.13;;;3.20;99.90;;;;;;5052400;28;20025;-80
2022/12/26 08:26:43;;;;;;;63.00;31.25;;;3.40;99.90;;;;;;5048839;28;20105;-79
2022/12/26 08:29:09;;;;;;;57.97;32.25;;;3.40;99.90;;;;;;5046646;28;20128;-79
2022/12/26 08:31:35;;;;;;;59.40;33.22;;;3.60;99.90;;;;;;5051952;28;20037;-80
2022/12/26 08:34:00;;;;;;;59.40;33.78;;;3.60;99.90;;;;;;5052314;28;20028;-83
2022/12/26 08:36:26;;;;;;;60.25;33.20;;;3.70;99.90;;;;;;5053720;28;20032;-82
2022/12/26 08:38:52;;;;;;;64.18;33.08;;;3.70;99.90;;;;;;5053840;28;20082;-82
2022/12/26 08:41:18;;;;;;;68.63;36.45;;;3.80;99.90;;;;;;5052416;28;20017;-81
2022/12/26 08:43:47;;;;;;;65.95;34.53;;;3.90;99.90;;;;;;5052371;28;20425;-81
2022/12/26 08:46:13;;;;;;;63.20;34.95;;;3.90;99.90;;;;;;5052348;28;20021;-82
2022/12/26 08:48:40;;;;;;;58.78;32.90;;;4.00;99.90;;;;;;5052291;28;20044;-83
2022/12/26 08:51:09;;;;;;;58.85;34.15;;;4.10;99.90;;;;;;5049719;28;20205;-81
2022/12/26 08:53:35;;;;;;;55.58;32.97;;;4.10;99.90;;;;;;5051505;28;20032;-84
2022/12/26 08:56:06;;;;;;;55.67;31.30;;;4.20;99.90;;;;;;5046406;28;20036;-83
2022/12/26 08:58:32;;;;;;;56.53;31.83;;;4.30;99.90;;;;;;5046868;28;20033;-83
2022/12/26 09:01:15;;;;;;;50.60;28.45;;;4.40;99.90;;;;;;5050327;28;20079;-83
2022/12/26 09:03:41;;;;;;;;;;;4.50;99.90;;;;;;5051507;28;20155;-84
2022/12/26 09:06:09;;;;;;;50.33;27.45;;;4.60;99.90;;;;;;5050520;28;20422;-80
2022/12/26 09:08:36;;;;;;;52.35;29.55;;;4.70;99.90;;;;;;5067469;28;20055;-82
2022/12/26 09:11:11;;;;;;;53.80;30.20;;;4.80;99.90;;;;;;5050530;28;20025;-80
2022/12/26 09:13:37;;;;;;;53.30;28.80;;;4.90;99.90;;;;;;5052358;28;20033;-80
2022/12/26 09:16:21;;;;;;;46.08;27.98;;;5.00;99.90;;;;;;5047350;28;20112;-84
2022/12/26 09:18:48;;;;;;;48.88;26.92;;;5.10;99.90;;;;;;5051149;28;20044;-79
2022/12/26 09:21:15;;;;;;;48.55;26.80;;;5.30;99.90;;;;;;5044398;28;20049;-81
2022/12/26 09:23:41;;;;;;;38.15;25.15;;;5.30;99.90;;;;;;5052378;28;20025;-79
2022/12/26 09:26:09;;;;;;;42.17;24.60;;;5.30;99.90;;;;;;5043910;28;20399;-85
2022/12/26 09:28:36;;;;;;;35.28;22.77;;;5.40;99.90;;;;;;5050772;28;20040;-80
2022/12/26 09:31:04;;;;;;;32.92;21.52;;;5.50;99.90;;;;;;5049739;28;20471;-84
2022/12/26 09:33:32;;;;;;;38.85;22.15;;;5.50;99.90;;;;;;5050516;28;20486;-84
2022/12/26 09:35:58;;;;;;;44.05;23.20;;;5.60;99.90;;;;;;5045028;28;20028;-83
2022/12/26 09:38:24;;;;;;;37.70;22.38;;;5.80;99.90;;;;;;5051648;28;20079;-80
2022/12/26 09:41:07;;;;;;;32.90;19.67;;;5.90;99.90;;;;;;5043727;28;20021;-82
2022/12/26 09:44:03;;;;;;;29.52;19.17;;;6.00;99.90;;;;;;5050636;28;20043;-80
2022/12/26 09:46:31;;;;;;;37.55;21.85;;;6.00;99.90;;;;;;5048571;28;20033;-80
2022/12/26 09:49:05;;;;;;;33.35;20.27;;;6.10;99.90;;;;;;5049321;28;20049;-83
2022/12/26 09:51:33;;;;;;;34.13;20.40;;;6.20;99.90;;;;;;5046575;28;20094;-80
2022/12/26 09:54:03;;;;;;;47.92;25.85;;;6.20;99.90;;;;;;5050532;28;20124;-80
2022/12/26 09:56:32;;;;;;;36.35;20.92;;;6.20;99.90;;;;;;5042877;28;20466;-82
2022/12/26 09:59:05;;;;;;;32.22;18.98;;;6.30;99.90;;;;;;5045811;28;20035;-82
2022/12/26 10:01:33;;;;;;;;;;;6.30;99.90;;;;;;5037312;28;20017;-84
2022/12/26 10:04:00;;;;;;;36.33;21.45;;;6.30;99.90;;;;;;5050328;28;19959;-80
2022/12/26 10:06:35;;;;;;;33.78;22.58;;;6.40;99.90;;;;;;5051827;28;20394;-81
2022/12/26 10:09:20;;;;;;;39.03;27.80;;;6.50;99.90;;;;;;5053843;28;20056;-80
2022/12/26 10:12:03;;;;;;;52.97;41.78;;;6.50;99.90;;;;;;5050185;28;20021;-78
2022/12/26 10:14:45;;;;;;;87.88;72.60;;;6.60;99.90;;;;;;5051476;28;20047;-78
2022/12/26 10:17:41;;;;;;;46.90;30.48;;;6.60;99.90;;;;;;5051954;28;20018;-78
2022/12/26 10:20:16;;;;;;;40.55;26.08;;;6.70;99.90;;;;;;5052653;28;20045;-78
2022/12/26 10:23:13;;;;;;;33.42;21.33;;;6.70;99.90;;;;;;5052897;28;20157;-79
2022/12/26 10:25:46;;;;;;;30.92;19.85;;;6.80;99.90;;;;;;5049938;28;20132;-79
2022/12/26 10:28:25;;;;;;;30.13;20.45;;;6.80;99.90;;;;;;5055367;28;20040;-78
2022/12/26 10:30:52;;;;;;;28.83;19.05;;;6.90;99.90;;;;;;5053245;28;20478;-79
2022/12/26 10:33:35;;;;;;;28.25;19.05;;;6.90;99.90;;;;;;5053645;28;20425;-80
2022/12/26 10:36:01;;;;;;;32.60;23.67;;;6.90;99.90;;;;;;5053838;28;20021;-81
2022/12/26 10:38:35;;;;;;;47.90;25.55;;;7.00;99.90;;;;;;5054526;28;20047;-79
2022/12/26 10:41:13;;;;;;;48.65;32.53;;;7.00;99.90;;;;;;5053873;28;20035;-81
2022/12/26 10:43:43;;;;;;;38.40;23.60;;;7.00;99.90;;;;;;5056147;28;20029;-79
2022/12/26 10:46:28;;;;;;;33.17;24.25;;;7.10;99.90;;;;;;5054565;28;20025;-80
2022/12/26 10:48:54;;;;;;;44.20;28.67;;;7.10;99.90;;;;;;5054418;28;20508;-81
2022/12/26 10:51:19;;;;;;;36.10;24.77;;;7.20;99.90;;;;;;5054594;28;20115;-78
2022/12/26 10:53:50;;;;;;;50.83;27.45;;;7.20;99.90;;;;;;5054615;28;20040;-82
2022/12/26 10:56:18;;;;;;;39.88;22.00;;;7.30;99.90;;;;;;5054373;28;20051;-81
2022/12/26 10:58:44;;;;;;;37.38;26.70;;;7.30;99.90;;;;;;5054402;28;20032;-81
2022/12/26 11:01:28;;;;;;;43.13;27.33;;;7.40;99.90;;;;;;5054316;28;20033;-84
2022/12/26 11:04:05;;;;;;;42.03;22.20;;;7.40;99.90;;;;;;5054348;28;20078;-83
2022/12/26 11:06:38;;;;;;;48.40;23.40;;;7.40;99.90;;;;;;5055721;28;20056;-83
2022/12/26 11:09:05;;;;;;;45.92;29.90;;;7.40;99.90;;;;;;5054064;28;20040;-83
2022/12/26 11:11:44;;;;;;;44.03;28.90;;;7.40;99.90;;;;;;5055501;28;20482;-83
2022/12/26 11:14:28;;;;;;;51.03;24.05;;;7.50;99.90;;;;;;5055464;28;20116;-85
2022/12/26 11:16:56;;;;;;;38.40;19.65;;;7.60;99.90;;;;;;5055520;28;20470;-84
2022/12/26 11:19:31;;;;;;;44.78;25.63;;;7.60;99.90;;;;;;5055189;28;20033;-85
2022/12/26 11:22:25;;;;;;;64.68;44.22;;;7.60;99.90;;;;;;5055200;28;20045;-86
2022/12/26 11:25:09;;;;;;;39.08;20.95;;;7.60;99.90;;;;;;5054061;28;20032;-86
2022/12/26 11:27:45;;;;;;;31.92;17.45;;;7.60;99.90;;;;;;5055472;28;20043;-82
2022/12/26 11:30:24;;;;;;;31.42;16.17;;;7.70;99.90;;;;;;5053782;28;20082;-82
2022/12/26 11:33:01;;;;;;;44.88;30.05;;;7.60;99.90;;;;;;5053954;28;20063;-82
2022/12/26 11:35:33;;;;;;;90.35;43.97;;;7.70;99.90;;;;;;5055358;28;20029;-85
2022/12/26 11:38:00;;;;;;;54.40;25.40;;;7.80;99.90;;;;;;5055010;28;20364;-85
2022/12/26 11:40:37;;;;;;;43.80;21.92;;;7.80;99.90;;;;;;5054739;28;20608;-81
2022/12/26 11:43:14;;;;;;;30.00;18.88;;;7.90;99.90;;;;;;5054920;28;20032;-82
2022/12/26 11:45:47;;;;;;;66.60;45.15;;;7.90;99.90;;;;;;5054843;28;20036;-81
2022/12/26 11:48:20;;;;;;;;;;;8.00;99.90;;;;;;5055561;28;20043;-85
2022/12/26 11:50:46;;;;;;;35.40;18.17;;;8.00;99.90;;;;;;5054796;28;20324;-87
2022/12/26 11:53:17;;;;;;;35.50;18.45;;;8.10;99.90;;;;;;5053545;28;20021;-87
2022/12/26 11:55:43;;;;;;;70.43;42.67;;;8.20;99.90;;;;;;5054673;28;20154;-88
2022/12/26 11:58:09;;;;;;;60.13;36.40;;;8.30;99.90;;;;;;5053259;28;20052;-88
2022/12/26 12:00:42;;;;;;;32.78;16.92;;;8.40;99.90;;;;;;5053201;28;20439;-80
2022/12/26 12:03:33;;;;;;;37.92;19.27;;;8.50;99.90;;;;;;5054564;28;20032;-80
2022/12/26 12:06:23;;;;;;;32.78;16.13;;;8.60;99.90;;;;;;5053339;28;20032;-80
2022/12/26 12:09:07;;;;;;;66.97;41.67;;;8.50;99.90;;;;;;5054365;28;20379;-85
2022/12/26 12:11:52;;;;;;;87.18;58.63;;;8.50;99.90;;;;;;5054470;28;20029;-86
2022/12/26 12:14:45;;;;;;;39.08;20.75;;;8.50;99.90;;;;;;5052973;28;20021;-85
2022/12/26 12:17:40;;;;;;;27.88;15.35;;;8.50;99.90;;;;;;5054539;28;20029;-87
2022/12/26 12:20:31;;;;;;;44.00;22.33;;;8.50;99.90;;;;;;5052478;28;20407;-84
2022/12/26 12:23:07;;;;;;;120.57;74.63;;;8.60;99.90;;;;;;5053023;28;20386;-84
2022/12/26 12:25:55;;;;;;;68.78;30.40;;;8.60;99.90;;;;;;5052799;28;20513;-80
2022/12/26 12:28:43;;;;;;;32.05;16.33;;;8.60;99.90;;;;;;5053619;28;20605;-80
2022/12/26 12:31:18;;;;;;;35.80;16.98;;;8.50;99.90;;;;;;5052617;28;20024;-79
2022/12/26 12:33:50;;;;;;;97.10;56.30;;;8.50;99.90;;;;;;5051654;28;20079;-82
2022/12/26 12:36:34;;;;;;;92.25;46.70;;;8.60;99.90;;;;;;5053607;28;20070;-87
2022/12/26 12:39:03;;;;;;;40.00;18.02;;;8.60;99.90;;;;;;5043514;28;20033;-81
2022/12/26 12:42:02;;;;;;;32.47;15.75;;;8.60;99.90;;;;;;5049958;28;20032;-87
2022/12/26 12:44:31;;;;;;;25.15;14.30;;;8.70;99.90;;;;;;5051268;28;20029;-81
2022/12/26 12:47:08;;;;;;;39.00;20.75;;;8.70;99.90;;;;;;5050085;28;20026;-87
2022/12/26 12:50:05;;;;;;;52.95;25.13;;;8.80;99.90;;;;;;5048894;28;20072;-87
2022/12/26 12:52:57;;;;;;;49.70;18.45;;;8.80;99.90;;;;;;5033350;28;20116;-82
2022/12/26 12:55:37;;;;;;;38.53;20.38;;;8.70;99.90;;;;;;5048614;28;20372;-78
2022/12/26 12:58:19;;;;;;;87.05;49.95;;;8.60;99.90;;;;;;5047733;28;20083;-81
2022/12/26 13:00:51;;;;;;;95.15;37.40;;;8.60;99.90;;;;;;5041064;28;20104;-82
2022/12/26 13:03:34;;;;;;;41.63;19.38;;;8.50;99.90;;;;;;5041319;28;20064;-86
2022/12/26 13:06:14;;;;;;;25.40;14.82;;;8.40;99.90;;;;;;5047830;28;20386;-80
2022/12/26 13:08:39;;;;;;;19.20;12.00;;;8.40;99.90;;;;;;5051790;28;20057;-86
2022/12/26 13:11:19;;;;;;;34.67;23.45;;;8.40;99.90;;;;;;5052130;28;20067;-85
2022/12/26 13:13:53;;;;;;;44.38;22.05;;;8.30;99.90;;;;;;5051105;28;20089;-79
2022/12/26 13:16:24;;;;;;;25.92;13.85;;;8.30;99.90;;;;;;5044033;28;20025;-78
2022/12/26 13:19:00;;;;;;;27.50;14.02;;;8.30;99.90;;;;;;5050803;28;20041;-79
2022/12/26 13:21:30;;;;;;;21.35;13.52;;;8.30;99.90;;;;;;5043722;28;20514;-80
2022/12/26 13:24:23;;;;;;;27.15;13.90;;;8.30;99.90;;;;;;5049715;28;20037;-80
2022/12/26 13:26:52;;;;;;;;;;;8.20;99.90;;;;;;5050248;28;20467;-79
2022/12/26 13:29:40;;;;;;;22.13;13.15;;;8.20;99.90;;;;;;5047206;28;19917;-83
2022/12/26 13:32:29;;;;;;;19.05;13.35;;;8.20;99.90;;;;;;5049678;28;20032;-82
2022/12/26 13:34:57;;;;;;;27.48;16.10;;;8.20;99.90;;;;;;5049722;28;20032;-83
2022/12/26 13:37:31;;;;;;;22.35;14.82;;;8.20;99.90;;;;;;5047505;28;20053;-83
2022/12/26 13:39:59;;;;;;;30.08;15.32;;;8.20;99.90;;;;;;5042021;28;20059;-87
2022/12/26 13:45:42;;;;;;;25.70;14.55;;;8.20;99.90;;;;;;5051609;28;20542;-88
2022/12/26 13:48:16;;;;;;;29.42;16.80;;;8.20;99.90;;;;;;5050822;28;20041;-86
2022/12/26 13:50:53;;;;;;;24.98;13.60;;;8.20;99.90;;;;;;5051752;28;20385;-88
2022/12/26 13:53:25;;;;;;;34.38;17.15;;;8.20;99.90;;;;;;5049236;28;20063;-80
2022/12/26 13:55:55;;;;;;;29.75;15.80;;;8.20;99.90;;;;;;5048797;28;20018;-82
2022/12/26 13:58:48;;;;;;;80.22;34.25;;;8.20;99.90;;;;;;5047461;28;20147;-80
2022/12/26 14:02:08;;;;;;;41.63;20.85;;;8.20;99.90;;;;;;5051583;28;20021;-81
2022/12/26 14:04:46;;;;;;;89.40;38.13;;;8.20;99.90;;;;;;5030967;28;20060;-81
2022/12/26 14:07:33;;;;;;;65.82;27.92;;;8.20;99.90;;;;;;5047130;28;20044;-81
2022/12/26 14:10:25;;;;;;;104.15;39.47;;;8.30;99.90;;;;;;5046264;28;20057;-81
2022/12/26 14:12:59;;;;;;;64.95;24.85;;;8.20;99.90;;;;;;5050311;28;20033;-80
2022/12/26 14:16:09;;;;;;;53.28;23.00;;;8.20;99.90;;;;;;5049889;28;20025;-81
2022/12/26 14:18:43;;;;;;;28.30;15.30;;;8.20;99.90;;;;;;5049531;28;20061;-82
2022/12/26 14:21:34;;;;;;;23.52;13.15;;;8.20;99.90;;;;;;5046357;28;20511;-82
2022/12/26 14:24:12;;;;;;;32.80;15.32;;;8.20;99.90;;;;;;5049686;28;20041;-81
2022/12/26 14:26:53;;;;;;;36.65;17.50;;;8.20;99.90;;;;;;5049557;28;20021;-80
2022/12/26 14:29:39;;;;;;;34.10;17.17;;;8.20;99.90;;;;;;5047920;28;20049;-80
2022/12/26 14:32:36;;;;;;;54.55;22.42;;;8.20;99.90;;;;;;5051282;28;20029;-80
2022/12/26 14:35:13;;;;;;;124.47;54.17;;;8.20;99.90;;;;;;5051548;28;20033;-80
2022/12/26 14:38:16;;;;;;;141.55;62.85;;;8.20;99.90;;;;;;5033064;28;20059;-81
2022/12/26 14:41:02;;;;;;;67.13;31.20;;;8.20;99.90;;;;;;5049057;28;20036;-80
2022/12/26 14:43:37;;;;;;;30.02;16.92;;;8.20;99.90;;;;;;5050940;28;20052;-80
2022/12/26 14:46:30;;;;;;;62.90;32.78;;;8.20;99.90;;;;;;5050169;28;20021;-80
2022/12/26 14:49:16;;;;;;;26.75;16.60;;;8.10;99.90;;;;;;5051218;28;20072;-81
2022/12/26 14:51:42;;;;;;;32.55;18.90;;;8.10;99.90;;;;;;5054921;28;20033;-80
2022/12/26 14:54:15;;;;;;;24.35;15.13;;;8.00;99.90;;;;;;5053755;28;20051;-79
2022/12/26 14:56:41;;;;;;;39.45;20.23;;;8.00;99.90;;;;;;5052324;28;20552;-80
2022/12/26 14:59:29;;;;;;;37.75;20.63;;;8.00;99.90;;;;;;5052199;28;20036;-80
2022/12/26 15:02:30;;;;;;;33.72;19.33;;;7.90;99.90;;;;;;5054249;28;20383;-81
2022/12/26 15:05:19;;;;;;;36.53;20.88;;;7.90;99.90;;;;;;5053403;28;20090;-81
2022/12/26 15:08:22;;;;;;;30.33;16.55;;;7.80;99.90;;;;;;5054510;28;20056;-80
2022/12/26 15:11:15;;;;;;;;;;;7.80;99.90;;;;;;5055287;28;20025;-80
2022/12/26 15:14:19;;;;;;;27.75;16.75;;;7.70;99.90;;;;;;5053198;28;19909;-81
2022/12/26 15:16:53;;;;;;;;;;;7.70;99.90;;;;;;5041793;28;20029;-75